sensor_id;sensor_type;location;lat;lon;timestamp;pressure;altitude;pressure_sealevel;temperature;humidity
35848;BME280;22332;51.954;20.118;2023-03-16T00:02:53;100389.56;;;0.22;73.49
35848;BME280;22332;51.954;20.118;2023-03-16T00:05:58;100388.14;;;0.28;73.44
35848;BME280;22332;51.954;20.118;2023-03-16T00:09:05;100391.68;;;0.34;73.47
35848;BME280;22332;51.954;20.118;2023-03-16T00:12:12;100396.88;;;0.39;73.14
35848;BME280;22332;51.954;20.118;2023-03-16T00:15:19;100399.74;;;0.40;73.21
35848;BME280;22332;51.954;20.118;2023-03-16T00:18:26;100401.30;;;0.37;73.06
35848;BME280;22332;51.954;20.118;2023-03-16T00:21:32;100405.64;;;0.38;72.96
35848;BME280;22332;51.954;20.118;2023-03-16T00:24:38;100406.77;;;0.40;72.78
35848;BME280;22332;51.954;20.118;2023-03-16T00:27:46;100414.44;;;0.37;72.78
35848;BME280;22332;51.954;20.118;2023-03-16T00:30:52;100416.45;;;0.35;72.96
35848;BME280;22332;51.954;20.118;2023-03-16T00:34:02;100413.86;;;0.35;72.79
35848;BME280;22332;51.954;20.118;2023-03-16T00:37:08;100414.42;;;0.34;72.92
35848;BME280;22332;51.954;20.118;2023-03-16T00:40:14;100412.54;;;0.30;73.23
35848;BME280;22332;51.954;20.118;2023-03-16T00:43:20;100412.14;;;0.28;73.31
35848;BME280;22332;51.954;20.118;2023-03-16T00:46:26;100416.06;;;0.27;73.49
35848;BME280;22332;51.954;20.118;2023-03-16T00:49:31;100415.48;;;0.24;73.85
35848;BME280;22332;51.954;20.118;2023-03-16T00:52:38;100416.71;;;0.25;73.69
35848;BME280;22332;51.954;20.118;2023-03-16T00:55:43;100418.52;;;0.23;73.77
35848;BME280;22332;51.954;20.118;2023-03-16T00:58:49;100419.60;;;0.23;74.14
35848;BME280;22332;51.954;20.118;2023-03-16T01:02:00;100418.98;;;0.22;73.30
35848;BME280;22332;51.954;20.118;2023-03-16T01:05:08;100417.20;;;0.25;73.21
35848;BME280;22332;51.954;20.118;2023-03-16T01:08:14;100416.63;;;0.29;73.00
35848;BME280;22332;51.954;20.118;2023-03-16T01:11:21;100419.70;;;0.31;72.68
35848;BME280;22332;51.954;20.118;2023-03-16T01:14:27;100422.89;;;0.30;72.59
35848;BME280;22332;51.954;20.118;2023-03-16T01:17:34;100423.74;;;0.27;72.50
35848;BME280;22332;51.954;20.118;2023-03-16T01:20:40;100421.77;;;0.25;72.52
35848;BME280;22332;51.954;20.118;2023-03-16T01:23:53;100419.63;;;0.22;72.42
35848;BME280;22332;51.954;20.118;2023-03-16T01:26:59;100421.71;;;0.16;72.08
35848;BME280;22332;51.954;20.118;2023-03-16T01:30:06;100422.88;;;0.11;72.24
35848;BME280;22332;51.954;20.118;2023-03-16T01:33:16;100427.98;;;0.04;71.90
35848;BME280;22332;51.954;20.118;2023-03-16T01:36:22;100432.70;;;-0.13;71.65
35848;BME280;22332;51.954;20.118;2023-03-16T01:39:31;100433.39;;;-0.20;71.95
35848;BME280;22332;51.954;20.118;2023-03-16T01:42:45;100432.46;;;-0.22;71.96
35848;BME280;22332;51.954;20.118;2023-03-16T01:46:16;100430.69;;;-0.28;71.91
35848;BME280;22332;51.954;20.118;2023-03-16T01:49:26;100435.47;;;-0.33;72.01
35848;BME280;22332;51.954;20.118;2023-03-16T01:52:37;100434.14;;;-0.38;71.78
35848;BME280;22332;51.954;20.118;2023-03-16T01:55:44;100441.83;;;-0.38;71.94
35848;BME280;22332;51.954;20.118;2023-03-16T01:58:51;100443.80;;;-0.35;71.54
35848;BME280;22332;51.954;20.118;2023-03-16T02:02:02;100446.70;;;-0.34;71.69
35848;BME280;22332;51.954;20.118;2023-03-16T02:05:13;100445.61;;;-0.29;71.69
35848;BME280;22332;51.954;20.118;2023-03-16T02:08:20;100445.92;;;-0.32;71.19
35848;BME280;22332;51.954;20.118;2023-03-16T02:11:27;100446.57;;;-0.35;71.50
35848;BME280;22332;51.954;20.118;2023-03-16T02:14:41;100445.97;;;-0.33;71.26
35848;BME280;22332;51.954;20.118;2023-03-16T02:17:48;100443.27;;;-0.42;71.04
35848;BME280;22332;51.954;20.118;2023-03-16T02:21:00;100450.45;;;-0.56;70.61
35848;BME280;22332;51.954;20.118;2023-03-16T02:24:09;100456.17;;;-0.69;71.14
35848;BME280;22332;51.954;20.118;2023-03-16T02:27:20;100457.80;;;-0.67;71.55
35848;BME280;22332;51.954;20.118;2023-03-16T02:30:29;100458.88;;;-0.64;71.24
35848;BME280;22332;51.954;20.118;2023-03-16T02:33:40;100462.04;;;-0.68;71.14
35848;BME280;22332;51.954;20.118;2023-03-16T02:36:48;100467.03;;;-0.73;70.95
35848;BME280;22332;51.954;20.118;2023-03-16T02:40:00;100469.86;;;-0.77;71.49
35848;BME280;22332;51.954;20.118;2023-03-16T02:43:10;100477.91;;;-0.82;71.28
35848;BME280;22332;51.954;20.118;2023-03-16T02:46:22;100480.27;;;-0.87;71.21
35848;BME280;22332;51.954;20.118;2023-03-16T02:49:34;100483.64;;;-0.88;71.19
35848;BME280;22332;51.954;20.118;2023-03-16T02:52:41;100488.23;;;-1.00;70.32
35848;BME280;22332;51.954;20.118;2023-03-16T02:55:47;100492.59;;;-1.14;70.71
35848;BME280;22332;51.954;20.118;2023-03-16T02:58:53;100503.66;;;-1.16;70.94
35848;BME280;22332;51.954;20.118;2023-03-16T03:02:00;100505.95;;;-1.16;70.90
35848;BME280;22332;51.954;20.118;2023-03-16T03:05:07;100510.02;;;-1.18;71.01
35848;BME280;22332;51.954;20.118;2023-03-16T03:08:14;100514.58;;;-1.18;70.95
35848;BME280;22332;51.954;20.118;2023-03-16T03:11:20;100516.07;;;-1.21;71.05
35848;BME280;22332;51.954;20.118;2023-03-16T03:14:26;100521.92;;;-1.22;70.96
35848;BME280;22332;51.954;20.118;2023-03-16T03:17:32;100522.13;;;-1.23;71.03
35848;BME280;22332;51.954;20.118;2023-03-16T03:20:38;100523.19;;;-1.23;71.10
35848;BME280;22332;51.954;20.118;2023-03-16T03:23:44;100520.23;;;-1.23;71.14
35848;BME280;22332;51.954;20.118;2023-03-16T03:26:50;100518.45;;;-1.26;71.15
35848;BME280;22332;51.954;20.118;2023-03-16T03:29:57;100523.77;;;-1.28;71.40
35848;BME280;22332;51.954;20.118;2023-03-16T03:33:05;100524.70;;;-1.26;71.56
35848;BME280;22332;51.954;20.118;2023-03-16T03:36:11;100526.55;;;-1.20;71.66
35848;BME280;22332;51.954;20.118;2023-03-16T03:39:17;100523.89;;;-1.16;71.47
35848;BME280;22332;51.954;20.118;2023-03-16T03:42:23;100528.67;;;-1.10;71.25
35848;BME280;22332;51.954;20.118;2023-03-16T03:45:29;100530.11;;;-1.07;71.20
35848;BME280;22332;51.954;20.118;2023-03-16T03:48:36;100532.48;;;-1.05;71.21
35848;BME280;22332;51.954;20.118;2023-03-16T03:51:41;100534.58;;;-1.05;71.09
35848;BME280;22332;51.954;20.118;2023-03-16T03:54:52;100531.91;;;-1.08;71.27
35848;BME280;22332;51.954;20.118;2023-03-16T03:57:58;100535.90;;;-1.07;71.28
35848;BME280;22332;51.954;20.118;2023-03-16T04:01:04;100537.83;;;-1.07;71.24
35848;BME280;22332;51.954;20.118;2023-03-16T04:04:11;100543.27;;;-1.08;71.14
35848;BME280;22332;51.954;20.118;2023-03-16T04:07:17;100545.07;;;-1.09;71.04
35848;BME280;22332;51.954;20.118;2023-03-16T04:10:23;100546.27;;;-1.13;70.71
35848;BME280;22332;51.954;20.118;2023-03-16T04:13:29;100545.58;;;-1.21;70.79
35848;BME280;22332;51.954;20.118;2023-03-16T04:16:35;100546.91;;;-1.27;70.98
35848;BME280;22332;51.954;20.118;2023-03-16T04:19:41;100551.01;;;-1.28;71.01
35848;BME280;22332;51.954;20.118;2023-03-16T04:22:50;100550.80;;;-1.32;70.71
35848;BME280;22332;51.954;20.118;2023-03-16T04:26:02;100552.23;;;-1.36;71.01
35848;BME280;22332;51.954;20.118;2023-03-16T04:29:10;100550.49;;;-1.40;70.75
35848;BME280;22332;51.954;20.118;2023-03-16T04:32:16;100554.18;;;-1.48;70.62
35848;BME280;22332;51.954;20.118;2023-03-16T04:35:23;100557.83;;;-1.56;70.78
35848;BME280;22332;51.954;20.118;2023-03-16T04:38:32;100562.05;;;-1.61;70.52
35848;BME280;22332;51.954;20.118;2023-03-16T04:41:38;100562.08;;;-1.65;70.43
35848;BME280;22332;51.954;20.118;2023-03-16T04:44:48;100559.89;;;-1.67;70.75
35848;BME280;22332;51.954;20.118;2023-03-16T04:47:54;100566.61;;;-1.73;70.72
35848;BME280;22332;51.954;20.118;2023-03-16T04:51:01;100567.08;;;-1.80;70.42
35848;BME280;22332;51.954;20.118;2023-03-16T04:54:09;100571.64;;;-1.84;70.48
35848;BME280;22332;51.954;20.118;2023-03-16T04:57:18;100575.98;;;-1.84;70.51
35848;BME280;22332;51.954;20.118;2023-03-16T05:00:27;100576.82;;;-1.83;70.63
35848;BME280;22332;51.954;20.118;2023-03-16T05:03:52;100577.66;;;-1.83;70.49
35848;BME280;22332;51.954;20.118;2023-03-16T05:06:58;100577.11;;;-1.82;70.71
35848;BME280;22332;51.954;20.118;2023-03-16T05:10:08;100578.45;;;-1.81;70.51
35848;BME280;22332;51.954;20.118;2023-03-16T05:13:16;100577.34;;;-1.79;70.41
35848;BME280;22332;51.954;20.118;2023-03-16T05:16:22;100577.66;;;-1.79;70.28
35848;BME280;22332;51.954;20.118;2023-03-16T05:19:28;100581.96;;;-1.77;70.50
35848;BME280;22332;51.954;20.118;2023-03-16T05:22:34;100585.03;;;-1.75;70.14
35848;BME280;22332;51.954;20.118;2023-03-16T05:25:51;100584.02;;;-1.72;70.64
35848;BME280;22332;51.954;20.118;2023-03-16T05:28:58;100586.10;;;-1.65;70.61
35848;BME280;22332;51.954;20.118;2023-03-16T05:32:06;100590.19;;;-1.54;70.50
35848;BME280;22332;51.954;20.118;2023-03-16T05:35:13;100587.29;;;-1.40;70.75
35848;BME280;22332;51.954;20.118;2023-03-16T05:38:19;100589.45;;;-1.26;70.54
35848;BME280;22332;51.954;20.118;2023-03-16T05:41:26;100592.34;;;-1.16;70.57
35848;BME280;22332;51.954;20.118;2023-03-16T05:44:54;100593.11;;;-1.06;70.77
35848;BME280;22332;51.954;20.118;2023-03-16T05:48:12;100595.70;;;-0.98;70.68
35848;BME280;22332;51.954;20.118;2023-03-16T05:51:22;100594.02;;;-0.88;70.80
35848;BME280;22332;51.954;20.118;2023-03-16T05:54:30;100597.29;;;-0.79;71.07
35848;BME280;22332;51.954;20.118;2023-03-16T05:57:36;100606.05;;;-0.72;71.05
35848;BME280;22332;51.954;20.118;2023-03-16T06:00:43;100610.86;;;-0.63;71.54
35848;BME280;22332;51.954;20.118;2023-03-16T06:04:03;100611.14;;;-0.55;71.80
35848;BME280;22332;51.954;20.118;2023-03-16T06:07:13;100612.31;;;-0.43;72.31
35848;BME280;22332;51.954;20.118;2023-03-16T06:10:19;100611.20;;;-0.30;72.47
35848;BME280;22332;51.954;20.118;2023-03-16T06:13:25;100611.50;;;-0.19;72.63
35848;BME280;22332;51.954;20.118;2023-03-16T06:16:31;100614.64;;;-0.08;72.86
35848;BME280;22332;51.954;20.118;2023-03-16T06:19:38;100616.15;;;0.04;72.90
35848;BME280;22332;51.954;20.118;2023-03-16T06:22:45;100619.05;;;0.19;73.01
35848;BME280;22332;51.954;20.118;2023-03-16T06:25:51;100620.62;;;0.36;73.09
35848;BME280;22332;51.954;20.118;2023-03-16T06:28:59;100621.71;;;0.56;73.11
35848;BME280;22332;51.954;20.118;2023-03-16T06:32:05;100624.44;;;0.74;73.07
35848;BME280;22332;51.954;20.118;2023-03-16T06:35:12;100624.79;;;0.91;73.00
35848;BME280;22332;51.954;20.118;2023-03-16T06:38:22;100627.41;;;1.04;73.07
35848;BME280;22332;51.954;20.118;2023-03-16T06:41:36;100632.39;;;1.15;72.90
35848;BME280;22332;51.954;20.118;2023-03-16T06:44:42;100635.55;;;1.25;72.91
35848;BME280;22332;51.954;20.118;2023-03-16T06:47:49;100639.22;;;1.32;73.04
35848;BME280;22332;51.954;20.118;2023-03-16T06:50:55;100645.25;;;1.40;73.13
35848;BME280;22332;51.954;20.118;2023-03-16T06:54:04;100649.14;;;1.46;72.93
35848;BME280;22332;51.954;20.118;2023-03-16T06:57:11;100646.60;;;1.50;73.02
35848;BME280;22332;51.954;20.118;2023-03-16T07:00:18;100644.90;;;1.56;73.04
35848;BME280;22332;51.954;20.118;2023-03-16T07:03:24;100645.65;;;1.62;73.06
35848;BME280;22332;51.954;20.118;2023-03-16T07:06:52;100647.88;;;1.69;73.22
35848;BME280;22332;51.954;20.118;2023-03-16T07:09:58;100645.95;;;1.72;73.09
35848;BME280;22332;51.954;20.118;2023-03-16T07:13:05;100648.93;;;1.78;73.18
35848;BME280;22332;51.954;20.118;2023-03-16T07:16:12;100650.36;;;1.87;73.07
35848;BME280;22332;51.954;20.118;2023-03-16T07:19:19;100654.89;;;1.93;73.14
35848;BME280;22332;51.954;20.118;2023-03-16T07:22:27;100656.77;;;2.03;73.13
35848;BME280;22332;51.954;20.118;2023-03-16T07:25:34;100656.91;;;2.17;73.08
35848;BME280;22332;51.954;20.118;2023-03-16T07:28:42;100657.80;;;2.28;73.09
35848;BME280;22332;51.954;20.118;2023-03-16T07:31:49;100650.73;;;2.41;73.00
35848;BME280;22332;51.954;20.118;2023-03-16T07:35:01;100657.20;;;2.50;73.05
35848;BME280;22332;51.954;20.118;2023-03-16T07:38:09;100653.97;;;2.57;72.92
35848;BME280;22332;51.954;20.118;2023-03-16T07:41:16;100658.58;;;2.57;72.80
35848;BME280;22332;51.954;20.118;2023-03-16T07:44:23;100663.95;;;2.61;72.98
35848;BME280;22332;51.954;20.118;2023-03-16T07:47:30;100662.84;;;2.70;73.05
35848;BME280;22332;51.954;20.118;2023-03-16T07:50:41;100658.52;;;2.78;72.83
35848;BME280;22332;51.954;20.118;2023-03-16T07:53:48;100658.85;;;2.78;72.91
35848;BME280;22332;51.954;20.118;2023-03-16T07:57:06;100661.36;;;2.81;72.88
35848;BME280;22332;51.954;20.118;2023-03-16T08:00:22;100658.90;;;2.83;72.81
35848;BME280;22332;51.954;20.118;2023-03-16T08:03:30;100658.21;;;2.86;73.03
35848;BME280;22332;51.954;20.118;2023-03-16T08:06:37;100661.10;;;2.93;72.98
35848;BME280;22332;51.954;20.118;2023-03-16T08:09:44;100660.94;;;3.02;73.13
35848;BME280;22332;51.954;20.118;2023-03-16T08:12:53;100668.10;;;3.17;73.12
35848;BME280;22332;51.954;20.118;2023-03-16T08:16:02;100669.60;;;3.32;73.06
35848;BME280;22332;51.954;20.118;2023-03-16T08:19:16;100670.13;;;3.49;72.66
35848;BME280;22332;51.954;20.118;2023-03-16T08:22:25;100673.70;;;3.62;72.52
35848;BME280;22332;51.954;20.118;2023-03-16T08:25:33;100673.88;;;3.73;72.51
35848;BME280;22332;51.954;20.118;2023-03-16T08:28:49;100674.63;;;3.80;72.33
35848;BME280;22332;51.954;20.118;2023-03-16T08:31:59;100676.41;;;3.85;72.39
35848;BME280;22332;51.954;20.118;2023-03-16T08:35:15;100673.26;;;3.93;72.14
35848;BME280;22332;51.954;20.118;2023-03-16T08:38:22;100677.48;;;4.01;71.89
35848;BME280;22332;51.954;20.118;2023-03-16T08:41:36;100678.20;;;4.04;71.69
35848;BME280;22332;51.954;20.118;2023-03-16T08:44:47;100678.15;;;4.00;71.57
35848;BME280;22332;51.954;20.118;2023-03-16T08:47:53;100680.80;;;4.07;71.88
35848;BME280;22332;51.954;20.118;2023-03-16T08:51:03;100681.66;;;4.16;71.06
35848;BME280;22332;51.954;20.118;2023-03-16T08:54:10;100681.73;;;4.22;71.28
35848;BME280;22332;51.954;20.118;2023-03-16T08:57:17;100685.39;;;4.28;71.11
35848;BME280;22332;51.954;20.118;2023-03-16T09:00:24;100684.92;;;4.25;70.03
35848;BME280;22332;51.954;20.118;2023-03-16T09:03:32;100690.26;;;4.19;69.90
35848;BME280;22332;51.954;20.118;2023-03-16T09:06:43;100692.77;;;4.23;69.77
35848;BME280;22332;51.954;20.118;2023-03-16T09:09:49;100691.51;;;4.19;69.87
35848;BME280;22332;51.954;20.118;2023-03-16T09:12:56;100690.31;;;4.26;70.56
35848;BME280;22332;51.954;20.118;2023-03-16T09:16:03;100684.86;;;4.39;70.70
35848;BME280;22332;51.954;20.118;2023-03-16T09:19:11;100687.89;;;4.52;69.35
35848;BME280;22332;51.954;20.118;2023-03-16T09:22:21;100688.29;;;4.53;68.67
35848;BME280;22332;51.954;20.118;2023-03-16T09:25:30;100683.98;;;4.57;69.76
35848;BME280;22332;51.954;20.118;2023-03-16T09:28:37;100688.58;;;4.67;68.92
35848;BME280;22332;51.954;20.118;2023-03-16T09:31:45;100686.13;;;4.75;69.15
35848;BME280;22332;51.954;20.118;2023-03-16T09:34:52;100687.84;;;4.79;68.66
35848;BME280;22332;51.954;20.118;2023-03-16T09:37:59;100688.59;;;4.83;68.66
35848;BME280;22332;51.954;20.118;2023-03-16T09:41:08;100689.42;;;4.86;66.86
35848;BME280;22332;51.954;20.118;2023-03-16T09:44:27;100691.15;;;4.82;65.04
35848;BME280;22332;51.954;20.118;2023-03-16T09:47:40;100685.73;;;4.94;66.25
35848;BME280;22332;51.954;20.118;2023-03-16T09:50:49;100689.18;;;5.00;64.31
35848;BME280;22332;51.954;20.118;2023-03-16T09:54:00;100688.61;;;5.01;64.30
35848;BME280;22332;51.954;20.118;2023-03-16T09:57:16;100687.23;;;5.03;65.66
35848;BME280;22332;51.954;20.118;2023-03-16T10:00:33;100691.05;;;5.19;65.80
35848;BME280;22332;51.954;20.118;2023-03-16T10:03:56;100690.45;;;5.32;65.00
35848;BME280;22332;51.954;20.118;2023-03-16T10:07:15;100699.11;;;5.44;65.46
35848;BME280;22332;51.954;20.118;2023-03-16T10:10:37;100697.48;;;5.58;66.44
35848;BME280;22332;51.954;20.118;2023-03-16T10:13:52;100700.14;;;5.72;65.66
35848;BME280;22332;51.954;20.118;2023-03-16T10:17:04;100697.88;;;5.86;66.01
35848;BME280;22332;51.954;20.118;2023-03-16T10:20:16;100700.06;;;6.08;63.44
35848;BME280;22332;51.954;20.118;2023-03-16T10:23:23;100699.64;;;6.23;63.25
35848;BME280;22332;51.954;20.118;2023-03-16T10:26:37;100701.02;;;6.28;63.67
35848;BME280;22332;51.954;20.118;2023-03-16T10:29:46;100703.52;;;6.35;63.54
35848;BME280;22332;51.954;20.118;2023-03-16T10:32:52;100705.86;;;6.41;63.97
35848;BME280;22332;51.954;20.118;2023-03-16T10:36:09;100708.17;;;6.41;62.88
35848;BME280;22332;51.954;20.118;2023-03-16T10:39:18;100703.02;;;6.37;62.30
35848;BME280;22332;51.954;20.118;2023-03-16T10:42:26;100703.25;;;6.34;59.10
35848;BME280;22332;51.954;20.118;2023-03-16T10:45:35;100699.13;;;6.53;62.56
35848;BME280;22332;51.954;20.118;2023-03-16T10:48:54;100696.90;;;6.81;60.40
35848;BME280;22332;51.954;20.118;2023-03-16T10:52:12;100698.16;;;6.92;59.79
35848;BME280;22332;51.954;20.118;2023-03-16T10:55:24;100699.84;;;7.23;61.88
35848;BME280;22332;51.954;20.118;2023-03-16T10:58:40;100695.29;;;7.62;62.26
35848;BME280;22332;51.954;20.118;2023-03-16T11:01:48;100698.43;;;7.80;61.35
35848;BME280;22332;51.954;20.118;2023-03-16T11:04:55;100694.79;;;7.93;60.13
35848;BME280;22332;51.954;20.118;2023-03-16T11:08:08;100709.94;;;7.89;57.06
35848;BME280;22332;51.954;20.118;2023-03-16T11:11:23;100704.39;;;7.66;56.46
35848;BME280;22332;51.954;20.118;2023-03-16T11:14:33;100712.39;;;7.63;57.06
35848;BME280;22332;51.954;20.118;2023-03-16T11:17:43;100714.42;;;7.48;58.60
35848;BME280;22332;51.954;20.118;2023-03-16T11:20:50;100711.37;;;7.36;58.42
35848;BME280;22332;51.954;20.118;2023-03-16T11:23:59;100720.52;;;7.02;54.30
35848;BME280;22332;51.954;20.118;2023-03-16T11:27:16;100721.39;;;6.72;55.19
35848;BME280;22332;51.954;20.118;2023-03-16T11:30:28;100715.95;;;6.69;58.04
35848;BME280;22332;51.954;20.118;2023-03-16T11:33:36;100707.02;;;7.03;58.54
35848;BME280;22332;51.954;20.118;2023-03-16T11:36:49;100708.78;;;7.33;55.54
35848;BME280;22332;51.954;20.118;2023-03-16T11:40:05;100704.73;;;7.39;56.22
35848;BME280;22332;51.954;20.118;2023-03-16T11:43:31;100716.10;;;7.32;55.14
35848;BME280;22332;51.954;20.118;2023-03-16T11:46:50;100714.23;;;7.33;56.91
35848;BME280;22332;51.954;20.118;2023-03-16T11:50:09;100709.52;;;7.50;55.56
35848;BME280;22332;51.954;20.118;2023-03-16T11:53:31;100710.11;;;7.54;55.39
35848;BME280;22332;51.954;20.118;2023-03-16T11:56:48;100710.63;;;7.61;54.77
35848;BME280;22332;51.954;20.118;2023-03-16T12:00:15;100704.63;;;7.72;53.72
35848;BME280;22332;51.954;20.118;2023-03-16T12:03:42;100706.71;;;7.79;51.92
35848;BME280;22332;51.954;20.118;2023-03-16T12:07:04;100708.08;;;7.84;52.86
35848;BME280;22332;51.954;20.118;2023-03-16T12:10:23;100709.74;;;7.80;53.17
35848;BME280;22332;51.954;20.118;2023-03-16T12:13:38;100708.73;;;7.71;52.73
35848;BME280;22332;51.954;20.118;2023-03-16T12:16:50;100701.95;;;7.81;54.24
35848;BME280;22332;51.954;20.118;2023-03-16T12:20:03;100697.69;;;8.00;53.82
35848;BME280;22332;51.954;20.118;2023-03-16T12:23:20;100708.48;;;8.03;51.68
35848;BME280;22332;51.954;20.118;2023-03-16T12:26:41;100712.99;;;7.60;50.35
35848;BME280;22332;51.954;20.118;2023-03-16T12:30:11;100709.73;;;7.27;52.53
35848;BME280;22332;51.954;20.118;2023-03-16T12:33:34;100711.37;;;7.20;53.33
35848;BME280;22332;51.954;20.118;2023-03-16T12:37:07;100713.94;;;7.16;53.20
35848;BME280;22332;51.954;20.118;2023-03-16T12:40:33;100712.59;;;6.86;51.17
35848;BME280;22332;51.954;20.118;2023-03-16T12:44:01;100709.32;;;6.71;53.92
35848;BME280;22332;51.954;20.118;2023-03-16T12:47:20;100713.23;;;6.77;53.40
35848;BME280;22332;51.954;20.118;2023-03-16T12:50:32;100718.11;;;6.66;52.39
35848;BME280;22332;51.954;20.118;2023-03-16T12:53:44;100719.35;;;6.53;52.61
35848;BME280;22332;51.954;20.118;2023-03-16T12:57:01;100715.04;;;6.42;52.54
35848;BME280;22332;51.954;20.118;2023-03-16T13:00:11;100719.59;;;6.35;52.44
35848;BME280;22332;51.954;20.118;2023-03-16T13:03:23;100715.70;;;6.45;52.77
35848;BME280;22332;51.954;20.118;2023-03-16T13:06:34;100712.55;;;6.63;53.11
35848;BME280;22332;51.954;20.118;2023-03-16T13:09:46;100709.64;;;6.83;52.19
35848;BME280;22332;51.954;20.118;2023-03-16T13:13:13;100711.21;;;7.03;52.87
35848;BME280;22332;51.954;20.118;2023-03-16T13:16:27;100709.39;;;7.23;52.01
35848;BME280;22332;51.954;20.118;2023-03-16T13:19:36;100702.27;;;7.19;51.98
35848;BME280;22332;51.954;20.118;2023-03-16T13:22:46;100707.23;;;7.14;52.63
35848;BME280;22332;51.954;20.118;2023-03-16T13:26:13;100708.72;;;7.13;53.27
35848;BME280;22332;51.954;20.118;2023-03-16T13:29:32;100708.39;;;7.06;52.82
35848;BME280;22332;51.954;20.118;2023-03-16T13:32:39;100711.96;;;6.94;52.39
35848;BME280;22332;51.954;20.118;2023-03-16T13:35:46;100716.80;;;6.86;52.11
35848;BME280;22332;51.954;20.118;2023-03-16T13:39:04;100721.55;;;6.73;52.26
35848;BME280;22332;51.954;20.118;2023-03-16T13:42:18;100719.71;;;6.64;52.36
35848;BME280;22332;51.954;20.118;2023-03-16T13:45:31;100722.34;;;6.72;51.94
35848;BME280;22332;51.954;20.118;2023-03-16T13:48:38;100713.37;;;6.80;51.90
35848;BME280;22332;51.954;20.118;2023-03-16T13:51:48;100710.21;;;6.92;51.56
35848;BME280;22332;51.954;20.118;2023-03-16T13:54:56;100715.20;;;6.93;52.09
35848;BME280;22332;51.954;20.118;2023-03-16T13:58:05;100721.25;;;6.75;52.14
35848;BME280;22332;51.954;20.118;2023-03-16T14:01:19;100723.80;;;6.64;53.18
35848;BME280;22332;51.954;20.118;2023-03-16T14:04:28;100719.94;;;6.73;53.19
35848;BME280;22332;51.954;20.118;2023-03-16T14:07:38;100714.48;;;6.96;53.04
35848;BME280;22332;51.954;20.118;2023-03-16T14:10:44;100724.92;;;7.07;51.65
35848;BME280;22332;51.954;20.118;2023-03-16T14:13:54;100730.15;;;6.94;52.82
35848;BME280;22332;51.954;20.118;2023-03-16T14:17:10;100740.52;;;6.81;53.44
35848;BME280;22332;51.954;20.118;2023-03-16T14:20:20;100745.27;;;6.67;53.31
35848;BME280;22332;51.954;20.118;2023-03-16T14:23:30;100747.42;;;6.72;53.56
35848;BME280;22332;51.954;20.118;2023-03-16T14:26:45;100750.09;;;6.69;52.61
35848;BME280;22332;51.954;20.118;2023-03-16T14:29:58;100749.45;;;6.59;53.06
35848;BME280;22332;51.954;20.118;2023-03-16T14:33:18;100752.10;;;6.40;53.16
35848;BME280;22332;51.954;20.118;2023-03-16T14:36:36;100758.34;;;6.25;53.13
35848;BME280;22332;51.954;20.118;2023-03-16T14:39:42;100757.13;;;6.03;53.67
35848;BME280;22332;51.954;20.118;2023-03-16T14:42:48;100758.24;;;5.86;53.60
35848;BME280;22332;51.954;20.118;2023-03-16T14:45:57;100761.20;;;5.70;53.41
35848;BME280;22332;51.954;20.118;2023-03-16T14:49:07;100762.23;;;5.60;53.60
35848;BME280;22332;51.954;20.118;2023-03-16T14:52:22;100764.26;;;5.52;53.45
35848;BME280;22332;51.954;20.118;2023-03-16T14:55:30;100761.95;;;5.49;53.36
35848;BME280;22332;51.954;20.118;2023-03-16T14:58:36;100766.72;;;5.44;53.31
35848;BME280;22332;51.954;20.118;2023-03-16T15:01:42;100765.29;;;5.37;53.23
35848;BME280;22332;51.954;20.118;2023-03-16T15:04:49;100764.41;;;5.32;53.25
35848;BME280;22332;51.954;20.118;2023-03-16T15:07:55;100765.39;;;5.30;52.62
35848;BME280;22332;51.954;20.118;2023-03-16T15:11:03;100759.71;;;5.33;53.24
35848;BME280;22332;51.954;20.118;2023-03-16T15:14:11;100763.45;;;5.40;53.11
35848;BME280;22332;51.954;20.118;2023-03-16T15:17:38;100768.43;;;5.47;52.50
35848;BME280;22332;51.954;20.118;2023-03-16T15:20:44;100763.58;;;5.46;51.95
35848;BME280;22332;51.954;20.118;2023-03-16T15:23:53;100770.52;;;5.43;51.17
35848;BME280;22332;51.954;20.118;2023-03-16T15:27:01;100769.09;;;5.35;50.85
35848;BME280;22332;51.954;20.118;2023-03-16T15:30:16;100773.67;;;5.28;51.39
35848;BME280;22332;51.954;20.118;2023-03-16T15:33:22;100773.70;;;5.18;51.71
35848;BME280;22332;51.954;20.118;2023-03-16T15:36:28;100778.70;;;5.08;51.70
35848;BME280;22332;51.954;20.118;2023-03-16T15:39:34;100783.98;;;4.96;51.72
35848;BME280;22332;51.954;20.118;2023-03-16T15:42:40;100793.59;;;4.81;52.01
35848;BME280;22332;51.954;20.118;2023-03-16T15:45:46;100797.83;;;4.70;52.60
35848;BME280;22332;51.954;20.118;2023-03-16T15:48:52;100797.40;;;4.66;53.17
35848;BME280;22332;51.954;20.118;2023-03-16T15:51:57;100802.85;;;4.66;53.14
35848;BME280;22332;51.954;20.118;2023-03-16T15:55:03;100802.77;;;4.65;53.53
35848;BME280;22332;51.954;20.118;2023-03-16T15:58:17;100800.84;;;4.62;53.65
35848;BME280;22332;51.954;20.118;2023-03-16T16:01:26;100804.66;;;4.60;53.71
35848;BME280;22332;51.954;20.118;2023-03-16T16:04:33;100806.36;;;4.53;54.07
35848;BME280;22332;51.954;20.118;2023-03-16T16:07:39;100806.06;;;4.47;54.28
35848;BME280;22332;51.954;20.118;2023-03-16T16:10:46;100808.63;;;4.43;54.62
35848;BME280;22332;51.954;20.118;2023-03-16T16:13:53;100816.98;;;4.42;54.90
35848;BME280;22332;51.954;20.118;2023-03-16T16:17:00;100815.31;;;4.38;55.36
35848;BME280;22332;51.954;20.118;2023-03-16T16:20:18;100813.99;;;4.33;55.34
35848;BME280;22332;51.954;20.118;2023-03-16T16:23:25;100820.19;;;4.33;55.89
35848;BME280;22332;51.954;20.118;2023-03-16T16:26:33;100821.69;;;4.29;55.77
35848;BME280;22332;51.954;20.118;2023-03-16T16:29:40;100824.33;;;4.28;56.06
35848;BME280;22332;51.954;20.118;2023-03-16T16:32:46;100829.04;;;4.27;56.39